WMT9JA EDJA-EDJA
Flight info
| Callsign | WMT9JA |
|---|---|
| Flight time | 1h 0m |
| Altitude | 3500 |
| Route | DCT |
| Aircraft | A321/M-SDE2E3FGHIRWXY/LB1 |
Departure
| Time | 2026-05-07 15:43 |
|---|---|
| Airport | Memmingen Allgau Airport (EDJA) |
Arrival
| Time | 2026-05-07 16:43 |
|---|---|
| Airport | Memmingen Allgau Airport (EDJA) |
| Time | Latitude | Longitude | Altitude | Speed | Heading |
|---|---|---|---|---|---|
| 2026-05-07 15:07 | 47.98735 | 10.22702 | 2078 ft | 0 kts | 48° |
| 2026-05-07 15:36 | 47.98736 | 10.22704 | 2078 ft | 2 kts | 49° |
| 2026-05-07 15:36 | 47.98733 | 10.22723 | 2076 ft | 1 kts | 124° |
| 2026-05-07 15:36 | 47.98717 | 10.22724 | 2077 ft | 5 kts | 173° |
| 2026-05-07 15:37 | 47.98700 | 10.22782 | 2076 ft | 9 kts | 85° |
| 2026-05-07 15:37 | 47.98712 | 10.22889 | 2077 ft | 12 kts | 75° |
| 2026-05-07 15:37 | 47.98749 | 10.22960 | 2078 ft | 10 kts | 61° |
| 2026-05-07 15:37 | 47.98783 | 10.23099 | 2080 ft | 17 kts | 71° |
| 2026-05-07 15:38 | 47.98826 | 10.23280 | 2081 ft | 20 kts | 70° |
| 2026-05-07 15:38 | 47.98873 | 10.23481 | 2080 ft | 22 kts | 70° |
| 2026-05-07 15:38 | 47.98910 | 10.23680 | 2077 ft | 13 kts | 105° |
| 2026-05-07 15:38 | 47.98838 | 10.23766 | 2076 ft | 15 kts | 148° |
| 2026-05-07 15:39 | 47.98841 | 10.23856 | 2074 ft | 10 kts | 62° |
| 2026-05-07 15:39 | 47.98886 | 10.23969 | 2069 ft | 15 kts | 58° |
| 2026-05-07 15:39 | 47.98952 | 10.24131 | 2071 ft | 20 kts | 58° |
| 2026-05-07 15:39 | 47.99033 | 10.24330 | 2068 ft | 24 kts | 59° |
| 2026-05-07 15:40 | 47.99123 | 10.24557 | 2068 ft | 26 kts | 60° |
| 2026-05-07 15:40 | 47.99219 | 10.24806 | 2067 ft | 29 kts | 59° |
| 2026-05-07 15:40 | 47.99328 | 10.25075 | 2063 ft | 32 kts | 59° |
| 2026-05-07 15:40 | 47.99445 | 10.25370 | 2059 ft | 34 kts | 59° |
| 2026-05-07 15:41 | 47.99528 | 10.25552 | 2057 ft | 6 kts | 69° |
| 2026-05-07 15:41 | 47.99516 | 10.25555 | 2057 ft | 1 kts | 214° |
| 2026-05-07 15:41 | 47.99510 | 10.25533 | 2057 ft | 3 kts | 239° |
| 2026-05-07 15:41 | 47.99509 | 10.25532 | 2057 ft | 0 kts | 239° |
| 2026-05-07 15:42 | 47.99425 | 10.25322 | 2058 ft | 64 kts | 239° |
| 2026-05-07 15:43 | 47.99054 | 10.24383 | 2069 ft | 142 kts | 239° |
| 2026-05-07 15:43 | 47.98502 | 10.22999 | 2629 ft | 160 kts | 241° |
| 2026-05-07 15:43 | 47.97921 | 10.21505 | 3316 ft | 174 kts | 242° |
| 2026-05-07 15:43 | 47.97119 | 10.20029 | 3590 ft | 191 kts | 218° |
| 2026-05-07 15:44 | 47.95852 | 10.19635 | 3544 ft | 193 kts | 166° |
| 2026-05-07 15:44 | 47.94684 | 10.20578 | 3580 ft | 193 kts | 150° |
| 2026-05-07 15:44 | 47.93598 | 10.21773 | 3585 ft | 199 kts | 133° |
| 2026-05-07 15:44 | 47.93155 | 10.23697 | 3539 ft | 202 kts | 87° |
| 2026-05-07 15:45 | 47.93649 | 10.25627 | 3518 ft | 199 kts | 57° |
| 2026-05-07 15:45 | 47.94408 | 10.27366 | 3549 ft | 200 kts | 55° |
| 2026-05-07 15:45 | 47.95177 | 10.29093 | 3568 ft | 200 kts | 54° |
| 2026-05-07 15:45 | 47.95912 | 10.30830 | 3612 ft | 201 kts | 57° |
| 2026-05-07 15:46 | 47.97425 | 10.34332 | 3561 ft | 199 kts | 56° |
| 2026-05-07 15:46 | 47.98175 | 10.36079 | 3550 ft | 199 kts | 56° |
| 2026-05-07 15:46 | 47.99082 | 10.37597 | 3524 ft | 196 kts | 25° |
| 2026-05-07 15:47 | 48.00360 | 10.37712 | 3557 ft | 185 kts | 335° |
| 2026-05-07 15:47 | 48.01448 | 10.36734 | 3554 ft | 183 kts | 325° |
| 2026-05-07 15:47 | 48.02525 | 10.35703 | 3509 ft | 184 kts | 325° |
| 2026-05-07 15:47 | 48.03381 | 10.34360 | 3513 ft | 181 kts | 287° |
| 2026-05-07 15:48 | 48.03140 | 10.32584 | 3474 ft | 184 kts | 233° |
| 2026-05-07 15:48 | 48.02137 | 10.31409 | 3248 ft | 180 kts | 221° |
| 2026-05-07 15:48 | 48.01331 | 10.30100 | 2955 ft | 160 kts | 239° |
| 2026-05-07 15:48 | 48.00774 | 10.28763 | 2658 ft | 146 kts | 242° |
| 2026-05-07 15:49 | 48.00290 | 10.27483 | 2434 ft | 140 kts | 243° |
| 2026-05-07 15:49 | 47.99794 | 10.26241 | 2237 ft | 139 kts | 243° |
| 2026-05-07 15:49 | 47.99305 | 10.25018 | 2079 ft | 135 kts | 244° |
| 2026-05-07 15:49 | 47.98876 | 10.23915 | 2077 ft | 118 kts | 241° |
| 2026-05-07 15:50 | 47.98370 | 10.22653 | 2406 ft | 159 kts | 242° |
| 2026-05-07 15:50 | 47.97785 | 10.21173 | 3328 ft | 167 kts | 238° |
| 2026-05-07 15:50 | 47.96762 | 10.20304 | 3561 ft | 184 kts | 184° |
| 2026-05-07 15:50 | 47.95591 | 10.21029 | 3529 ft | 187 kts | 148° |
| 2026-05-07 15:51 | 47.94482 | 10.22045 | 3510 ft | 188 kts | 149° |
| 2026-05-07 15:51 | 47.93906 | 10.23717 | 3502 ft | 190 kts | 85° |
| 2026-05-07 15:51 | 47.94408 | 10.25508 | 3513 ft | 190 kts | 58° |
| 2026-05-07 15:51 | 47.95066 | 10.27203 | 3487 ft | 187 kts | 56° |
| 2026-05-07 15:52 | 47.95753 | 10.28871 | 3477 ft | 189 kts | 57° |
| 2026-05-07 15:52 | 47.96442 | 10.30537 | 3482 ft | 188 kts | 56° |
| 2026-05-07 15:52 | 47.97133 | 10.32203 | 3440 ft | 188 kts | 56° |
| 2026-05-07 15:52 | 47.97826 | 10.33848 | 3491 ft | 186 kts | 56° |
| 2026-05-07 15:53 | 47.98542 | 10.35451 | 3488 ft | 181 kts | 41° |
| 2026-05-07 15:53 | 47.99593 | 10.35857 | 3431 ft | 151 kts | 335° |
| 2026-05-07 15:53 | 48.00398 | 10.35022 | 3432 ft | 139 kts | 320° |
| 2026-05-07 15:53 | 48.01164 | 10.34161 | 3437 ft | 137 kts | 321° |
| 2026-05-07 15:54 | 48.01878 | 10.33251 | 3420 ft | 133 kts | 300° |
| 2026-05-07 15:54 | 48.01977 | 10.31889 | 3241 ft | 142 kts | 255° |
| 2026-05-07 15:54 | 48.01517 | 10.30592 | 3043 ft | 138 kts | 242° |
| 2026-05-07 15:54 | 48.01015 | 10.29354 | 2816 ft | 141 kts | 243° |
| 2026-05-07 15:55 | 48.00509 | 10.28074 | 2600 ft | 145 kts | 244° |
| 2026-05-07 15:55 | 47.99996 | 10.26768 | 2353 ft | 145 kts | 242° |
| 2026-05-07 15:55 | 47.99483 | 10.25470 | 2138 ft | 145 kts | 242° |
| 2026-05-07 15:55 | 47.98997 | 10.24258 | 2072 ft | 122 kts | 243° |
| 2026-05-07 15:56 | 47.98579 | 10.23177 | 2085 ft | 144 kts | 242° |
| 2026-05-07 15:56 | 47.98020 | 10.21787 | 2939 ft | 161 kts | 242° |
| 2026-05-07 15:56 | 47.97283 | 10.20475 | 3588 ft | 174 kts | 211° |
| 2026-05-07 15:56 | 47.96118 | 10.20455 | 3624 ft | 179 kts | 153° |
| 2026-05-07 15:57 | 47.95017 | 10.21383 | 3599 ft | 184 kts | 152° |
| 2026-05-07 15:57 | 47.93958 | 10.22501 | 3583 ft | 190 kts | 132° |
| 2026-05-07 15:57 | 47.93568 | 10.24323 | 3546 ft | 188 kts | 75° |
| 2026-05-07 15:57 | 47.94203 | 10.25991 | 3487 ft | 186 kts | 54° |
| 2026-05-07 15:58 | 47.94901 | 10.27610 | 3489 ft | 186 kts | 54° |
| 2026-05-07 15:58 | 47.95599 | 10.29244 | 3469 ft | 187 kts | 54° |
| 2026-05-07 15:58 | 47.96302 | 10.30869 | 3465 ft | 186 kts | 55° |
| 2026-05-07 15:58 | 47.96990 | 10.32503 | 3438 ft | 187 kts | 56° |
| 2026-05-07 15:59 | 47.97883 | 10.33820 | 3451 ft | 180 kts | 21° |
| 2026-05-07 15:59 | 47.99071 | 10.33899 | 3342 ft | 170 kts | 336° |
| 2026-05-07 15:59 | 48.00087 | 10.33043 | 3188 ft | 169 kts | 328° |
| 2026-05-07 15:59 | 48.01048 | 10.32130 | 2978 ft | 154 kts | 315° |
| 2026-05-07 16:00 | 48.01344 | 10.30739 | 2732 ft | 142 kts | 261° |
| 2026-05-07 16:00 | 48.01017 | 10.29381 | 2586 ft | 139 kts | 249° |
| 2026-05-07 16:00 | 48.00533 | 10.28118 | 2501 ft | 141 kts | 242° |
| 2026-05-07 16:00 | 48.00031 | 10.26857 | 2338 ft | 142 kts | 243° |
| 2026-05-07 16:01 | 47.99529 | 10.25587 | 2146 ft | 141 kts | 243° |
| 2026-05-07 16:01 | 47.99062 | 10.24394 | 2070 ft | 122 kts | 239° |
| 2026-05-07 16:01 | 47.98548 | 10.23091 | 2191 ft | 171 kts | 243° |
| 2026-05-07 16:01 | 47.97946 | 10.21564 | 3352 ft | 174 kts | 242° |
| 2026-05-07 16:02 | 47.97153 | 10.20156 | 3556 ft | 185 kts | 205° |
| 2026-05-07 16:02 | 47.95907 | 10.20290 | 3553 ft | 187 kts | 154° |
| 2026-05-07 16:02 | 47.94772 | 10.21224 | 3526 ft | 186 kts | 151° |
| 2026-05-07 16:02 | 47.93903 | 10.22603 | 3545 ft | 191 kts | 107° |
| 2026-05-07 16:03 | 47.94059 | 10.24493 | 3544 ft | 186 kts | 62° |
| 2026-05-07 16:03 | 47.94762 | 10.26096 | 3581 ft | 186 kts | 53° |
| 2026-05-07 16:03 | 47.95468 | 10.27715 | 3600 ft | 186 kts | 55° |
| 2026-05-07 16:03 | 47.96160 | 10.29321 | 3561 ft | 185 kts | 54° |
| 2026-05-07 16:04 | 47.96857 | 10.30952 | 3497 ft | 186 kts | 54° |
| 2026-05-07 16:04 | 47.97558 | 10.32573 | 3445 ft | 185 kts | 55° |
| 2026-05-07 16:04 | 47.98334 | 10.34058 | 3413 ft | 177 kts | 23° |
| 2026-05-07 16:04 | 47.99396 | 10.34030 | 3368 ft | 150 kts | 329° |
| 2026-05-07 16:05 | 48.00242 | 10.33257 | 3423 ft | 137 kts | 326° |
| 2026-05-07 16:05 | 48.01046 | 10.32507 | 3470 ft | 135 kts | 327° |
| 2026-05-07 16:05 | 48.01712 | 10.31582 | 3414 ft | 135 kts | 287° |
| 2026-05-07 16:05 | 48.01465 | 10.30275 | 3186 ft | 137 kts | 236° |
| 2026-05-07 16:06 | 48.00914 | 10.29118 | 2918 ft | 137 kts | 241° |
| 2026-05-07 16:06 | 48.00437 | 10.27880 | 2581 ft | 138 kts | 244° |
| 2026-05-07 16:06 | 47.99956 | 10.26641 | 2313 ft | 137 kts | 242° |
| 2026-05-07 16:06 | 47.99467 | 10.25426 | 2128 ft | 139 kts | 243° |
| 2026-05-07 16:07 | 47.98999 | 10.24264 | 2072 ft | 118 kts | 243° |
| 2026-05-07 16:07 | 47.98562 | 10.23140 | 2105 ft | 146 kts | 242° |
| 2026-05-07 16:07 | 47.98009 | 10.21761 | 3002 ft | 162 kts | 240° |
| 2026-05-07 16:07 | 47.97249 | 10.20433 | 3489 ft | 181 kts | 211° |
| 2026-05-07 16:08 | 47.96014 | 10.20427 | 3560 ft | 186 kts | 153° |
| 2026-05-07 16:08 | 47.94919 | 10.21464 | 3545 ft | 186 kts | 147° |
| 2026-05-07 16:08 | 47.93888 | 10.22613 | 3506 ft | 189 kts | 124° |
| 2026-05-07 16:08 | 47.93685 | 10.23199 | 3521 ft | 189 kts | 107° |
| 2026-05-07 16:09 | 47.93957 | 10.25338 | 3611 ft | 186 kts | 57° |
| 2026-05-07 16:09 | 47.94668 | 10.26951 | 3545 ft | 186 kts | 54° |
| 2026-05-07 16:09 | 47.95361 | 10.28581 | 3513 ft | 185 kts | 56° |
| 2026-05-07 16:09 | 47.96043 | 10.30210 | 3477 ft | 185 kts | 56° |
| 2026-05-07 16:10 | 47.96733 | 10.31845 | 3432 ft | 186 kts | 55° |
| 2026-05-07 16:10 | 47.97439 | 10.33463 | 3454 ft | 185 kts | 54° |
| 2026-05-07 16:10 | 47.98137 | 10.35069 | 3490 ft | 184 kts | 54° |
| 2026-05-07 16:10 | 47.98816 | 10.36650 | 3508 ft | 183 kts | 54° |
| 2026-05-07 16:11 | 47.99735 | 10.37871 | 3494 ft | 177 kts | 14° |
| 2026-05-07 16:11 | 48.00827 | 10.37605 | 3452 ft | 151 kts | 320° |
| 2026-05-07 16:11 | 48.01109 | 10.37294 | 3442 ft | 148 kts | 324° |
| 2026-05-07 16:11 | 48.02453 | 10.36087 | 3461 ft | 134 kts | 327° |
| 2026-05-07 16:12 | 48.03012 | 10.35043 | 3480 ft | 135 kts | 279° |
| 2026-05-07 16:12 | 48.02788 | 10.33662 | 3442 ft | 144 kts | 242° |
| 2026-05-07 16:12 | 48.02258 | 10.32386 | 3404 ft | 142 kts | 239° |
| 2026-05-07 16:12 | 48.01896 | 10.31557 | 3227 ft | 145 kts | 239° |
| 2026-05-07 16:13 | 48.01206 | 10.29872 | 2927 ft | 138 kts | 243° |
| 2026-05-07 16:13 | 48.00895 | 10.29058 | 2758 ft | 136 kts | 244° |
| 2026-05-07 16:13 | 48.00417 | 10.27821 | 2521 ft | 138 kts | 243° |
| 2026-05-07 16:13 | 47.99934 | 10.26591 | 2301 ft | 137 kts | 243° |
| 2026-05-07 16:14 | 47.99284 | 10.24971 | 2066 ft | 132 kts | 243° |
| 2026-05-07 16:14 | 47.98854 | 10.23884 | 2074 ft | 121 kts | 239° |
| 2026-05-07 16:14 | 47.98510 | 10.22999 | 2232 ft | 162 kts | 245° |
| 2026-05-07 16:14 | 47.97928 | 10.21474 | 3176 ft | 173 kts | 243° |
| 2026-05-07 16:15 | 47.97137 | 10.20113 | 3500 ft | 182 kts | 213° |
| 2026-05-07 16:15 | 47.95902 | 10.19780 | 3615 ft | 186 kts | 172° |
| 2026-05-07 16:15 | 47.94728 | 10.20586 | 3583 ft | 186 kts | 150° |
| 2026-05-07 16:15 | 47.93702 | 10.21748 | 3577 ft | 189 kts | 123° |
| 2026-05-07 16:16 | 47.93549 | 10.23618 | 3565 ft | 186 kts | 65° |
| 2026-05-07 16:16 | 47.94234 | 10.25226 | 3545 ft | 183 kts | 54° |
| 2026-05-07 16:16 | 47.94937 | 10.26823 | 3508 ft | 184 kts | 54° |
| 2026-05-07 16:16 | 47.95638 | 10.28423 | 3511 ft | 185 kts | 56° |
| 2026-05-07 16:17 | 47.96320 | 10.30054 | 3523 ft | 185 kts | 55° |
| 2026-05-07 16:17 | 47.96993 | 10.31677 | 3497 ft | 185 kts | 56° |
| 2026-05-07 16:17 | 47.97682 | 10.33287 | 3476 ft | 183 kts | 54° |
| 2026-05-07 16:17 | 47.98384 | 10.34878 | 3464 ft | 183 kts | 53° |
| 2026-05-07 16:18 | 47.99169 | 10.36353 | 3501 ft | 181 kts | 35° |
| 2026-05-07 16:18 | 48.00329 | 10.36615 | 3478 ft | 173 kts | 337° |
| 2026-05-07 16:18 | 48.01037 | 10.35268 | 3461 ft | 174 kts | 277° |
| 2026-05-07 16:18 | 48.00592 | 10.33669 | 3486 ft | 179 kts | 219° |
| 2026-05-07 16:19 | 47.99380 | 10.33371 | 3498 ft | 188 kts | 162° |
| 2026-05-07 16:19 | 47.98503 | 10.34741 | 3510 ft | 189 kts | 104° |
| 2026-05-07 16:19 | 47.98767 | 10.36546 | 3550 ft | 182 kts | 46° |
| 2026-05-07 16:19 | 47.99883 | 10.37148 | 3581 ft | 174 kts | 347° |
| 2026-05-07 16:20 | 48.00753 | 10.36062 | 3580 ft | 171 kts | 290° |
| 2026-05-07 16:20 | 48.00528 | 10.34365 | 3607 ft | 178 kts | 231° |
| 2026-05-07 16:20 | 47.99383 | 10.33742 | 3628 ft | 188 kts | 173° |
| 2026-05-07 16:20 | 47.98350 | 10.34849 | 3656 ft | 191 kts | 115° |
| 2026-05-07 16:21 | 47.98336 | 10.36743 | 3609 ft | 184 kts | 63° |
| 2026-05-07 16:21 | 47.98963 | 10.38397 | 3551 ft | 182 kts | 55° |
| 2026-05-07 16:21 | 47.99667 | 10.39949 | 3501 ft | 183 kts | 53° |
| 2026-05-07 16:21 | 48.00373 | 10.41526 | 3459 ft | 183 kts | 53° |
| 2026-05-07 16:22 | 48.01079 | 10.43100 | 3415 ft | 182 kts | 54° |
| 2026-05-07 16:22 | 48.01779 | 10.44683 | 3439 ft | 182 kts | 54° |
| 2026-05-07 16:22 | 48.02474 | 10.46267 | 3458 ft | 183 kts | 54° |
| 2026-05-07 16:22 | 48.03417 | 10.47404 | 3490 ft | 176 kts | 6° |
| 2026-05-07 16:23 | 48.04513 | 10.46850 | 3546 ft | 172 kts | 310° |
| 2026-05-07 16:23 | 48.04792 | 10.45181 | 3580 ft | 173 kts | 258° |
| 2026-05-07 16:23 | 48.04162 | 10.43626 | 3596 ft | 177 kts | 236° |
| 2026-05-07 16:23 | 48.03563 | 10.42039 | 3621 ft | 175 kts | 250° |
| 2026-05-07 16:24 | 48.03228 | 10.40300 | 3646 ft | 173 kts | 261° |
| 2026-05-07 16:24 | 48.03070 | 10.38530 | 3658 ft | 172 kts | 266° |
| 2026-05-07 16:24 | 48.02947 | 10.36736 | 3606 ft | 173 kts | 265° |
| 2026-05-07 16:24 | 48.02797 | 10.34944 | 3568 ft | 174 kts | 263° |
| 2026-05-07 16:25 | 48.03017 | 10.33254 | 3491 ft | 169 kts | 312° |
| 2026-05-07 16:25 | 48.04091 | 10.32724 | 3490 ft | 176 kts | 9° |
| 2026-05-07 16:25 | 48.05003 | 10.33890 | 3488 ft | 185 kts | 67° |
| 2026-05-07 16:25 | 48.04857 | 10.35758 | 3499 ft | 189 kts | 124° |
| 2026-05-07 16:26 | 48.03764 | 10.36672 | 3506 ft | 184 kts | 180° |
| 2026-05-07 16:26 | 48.02665 | 10.35901 | 3519 ft | 177 kts | 237° |
| 2026-05-07 16:26 | 48.02484 | 10.34195 | 3547 ft | 171 kts | 291° |
| 2026-05-07 16:26 | 48.03345 | 10.33062 | 3577 ft | 173 kts | 346° |
| 2026-05-07 16:27 | 48.04488 | 10.33530 | 3605 ft | 181 kts | 40° |
| 2026-05-07 16:27 | 48.04925 | 10.35266 | 3653 ft | 188 kts | 95° |
| 2026-05-07 16:27 | 48.04265 | 10.36893 | 3640 ft | 189 kts | 149° |
| 2026-05-07 16:27 | 48.03027 | 10.37113 | 3619 ft | 182 kts | 204° |
| 2026-05-07 16:28 | 48.02221 | 10.35802 | 3615 ft | 174 kts | 259° |
| 2026-05-07 16:28 | 48.02487 | 10.34160 | 3613 ft | 171 kts | 311° |
| 2026-05-07 16:28 | 48.03015 | 10.32669 | 3522 ft | 161 kts | 266° |
| 2026-05-07 16:28 | 48.02392 | 10.31422 | 3353 ft | 155 kts | 210° |
| 2026-05-07 16:29 | 48.01509 | 10.30592 | 3084 ft | 144 kts | 227° |
| 2026-05-07 16:29 | 48.01019 | 10.29386 | 2883 ft | 133 kts | 244° |
| 2026-05-07 16:29 | 48.00548 | 10.28196 | 2583 ft | 133 kts | 247° |
| 2026-05-07 16:29 | 48.00094 | 10.26993 | 2370 ft | 132 kts | 244° |
| 2026-05-07 16:30 | 47.99620 | 10.25812 | 2171 ft | 133 kts | 243° |
| 2026-05-07 16:30 | 47.99159 | 10.24658 | 2069 ft | 118 kts | 244° |
| 2026-05-07 16:30 | 47.98758 | 10.23642 | 2080 ft | 129 kts | 239° |
| 2026-05-07 16:30 | 47.98238 | 10.22324 | 2747 ft | 157 kts | 242° |
| 2026-05-07 16:31 | 47.97629 | 10.20929 | 3594 ft | 165 kts | 229° |
| 2026-05-07 16:31 | 47.96493 | 10.20401 | 3583 ft | 184 kts | 170° |
| 2026-05-07 16:31 | 47.95346 | 10.21230 | 3529 ft | 183 kts | 149° |
| 2026-05-07 16:31 | 47.94240 | 10.22229 | 3521 ft | 188 kts | 150° |
| 2026-05-07 16:32 | 47.93402 | 10.23704 | 3568 ft | 189 kts | 111° |
| 2026-05-07 16:32 | 47.93351 | 10.25631 | 3553 ft | 189 kts | 71° |
| 2026-05-07 16:32 | 47.93984 | 10.27326 | 3550 ft | 187 kts | 55° |
| 2026-05-07 16:32 | 47.94673 | 10.28964 | 3567 ft | 186 kts | 54° |
| 2026-05-07 16:33 | 47.95373 | 10.30580 | 3592 ft | 185 kts | 54° |
| 2026-05-07 16:33 | 47.96086 | 10.32180 | 3594 ft | 186 kts | 54° |
| 2026-05-07 16:33 | 47.96818 | 10.33778 | 3609 ft | 186 kts | 52° |
| 2026-05-07 16:33 | 47.97518 | 10.35374 | 3624 ft | 185 kts | 54° |
| 2026-05-07 16:34 | 47.98190 | 10.36996 | 3652 ft | 183 kts | 57° |
| 2026-05-07 16:34 | 47.98768 | 10.38686 | 3592 ft | 186 kts | 78° |
| 2026-05-07 16:34 | 47.98371 | 10.40478 | 3523 ft | 190 kts | 135° |
| 2026-05-07 16:34 | 47.97167 | 10.41029 | 3483 ft | 184 kts | 193° |
| 2026-05-07 16:35 | 47.96240 | 10.39894 | 3493 ft | 175 kts | 251° |
| 2026-05-07 16:35 | 47.96410 | 10.38212 | 3515 ft | 171 kts | 307° |
| 2026-05-07 16:35 | 47.97488 | 10.37594 | 3543 ft | 177 kts | 6° |
| 2026-05-07 16:35 | 47.98446 | 10.38694 | 3601 ft | 185 kts | 62° |
| 2026-05-07 16:36 | 47.98385 | 10.40572 | 3646 ft | 190 kts | 118° |
| 2026-05-07 16:36 | 47.97326 | 10.41618 | 3664 ft | 187 kts | 174° |
| 2026-05-07 16:36 | 47.96191 | 10.40944 | 3563 ft | 179 kts | 233° |
| 2026-05-07 16:36 | 47.96002 | 10.39221 | 3519 ft | 174 kts | 290° |
| 2026-05-07 16:37 | 47.96899 | 10.38113 | 3474 ft | 177 kts | 347° |
| 2026-05-07 16:37 | 47.98017 | 10.38670 | 3466 ft | 182 kts | 44° |
| 2026-05-07 16:37 | 47.98609 | 10.40353 | 3561 ft | 185 kts | 61° |
| 2026-05-07 16:37 | 47.99277 | 10.41983 | 3598 ft | 183 kts | 53° |
| 2026-05-07 16:38 | 48.00003 | 10.43548 | 3599 ft | 183 kts | 52° |
| 2026-05-07 16:38 | 48.00737 | 10.45103 | 3592 ft | 183 kts | 53° |
| 2026-05-07 16:38 | 48.01624 | 10.46395 | 3621 ft | 179 kts | 19° |
| 2026-05-07 16:38 | 48.02771 | 10.46202 | 3573 ft | 162 kts | 323° |
| 2026-05-07 16:39 | 48.03543 | 10.45147 | 3499 ft | 141 kts | 315° |
| 2026-05-07 16:39 | 48.04209 | 10.44139 | 3433 ft | 135 kts | 313° |
| 2026-05-07 16:39 | 48.04825 | 10.43101 | 3434 ft | 132 kts | 310° |
| 2026-05-07 16:39 | 48.05338 | 10.41998 | 3438 ft | 130 kts | 289° |
| 2026-05-07 16:40 | 48.05455 | 10.40621 | 3473 ft | 137 kts | 266° |
| 2026-05-07 16:40 | 48.05048 | 10.39330 | 3497 ft | 141 kts | 238° |
| 2026-05-07 16:40 | 48.04507 | 10.38116 | 3519 ft | 141 kts | 240° |
| 2026-05-07 16:40 | 48.04002 | 10.36880 | 3542 ft | 137 kts | 242° |
| 2026-05-07 16:41 | 48.03511 | 10.35662 | 3524 ft | 135 kts | 243° |
| 2026-05-07 16:41 | 48.03027 | 10.34454 | 3486 ft | 136 kts | 243° |
| 2026-05-07 16:41 | 48.02545 | 10.33219 | 3368 ft | 139 kts | 242° |
| 2026-05-07 16:41 | 48.02057 | 10.31954 | 3227 ft | 140 kts | 244° |
| 2026-05-07 16:42 | 48.01573 | 10.30693 | 2979 ft | 139 kts | 242° |
| 2026-05-07 16:42 | 48.01050 | 10.29467 | 2760 ft | 139 kts | 242° |
| 2026-05-07 16:42 | 48.00560 | 10.28239 | 2528 ft | 138 kts | 245° |
| 2026-05-07 16:42 | 48.00085 | 10.26980 | 2363 ft | 139 kts | 244° |
| 2026-05-07 16:43 | 47.99602 | 10.25758 | 2161 ft | 137 kts | 242° |
| 2026-05-07 16:43 | 47.99125 | 10.24579 | 2070 ft | 120 kts | 247° |
| 2026-05-07 16:43 | 47.98775 | 10.23682 | 2076 ft | 75 kts | 239° |
| 2026-05-07 16:43 | 47.98577 | 10.23176 | 2080 ft | 27 kts | 240° |
| 2026-05-07 16:44 | 47.98558 | 10.23104 | 2080 ft | 6 kts | 236° |
| 2026-05-07 16:44 | 47.98516 | 10.23015 | 2082 ft | 15 kts | 234° |
| 2026-05-07 16:44 | 47.98453 | 10.22876 | 2084 ft | 17 kts | 239° |
| 2026-05-07 16:44 | 47.98390 | 10.22713 | 2086 ft | 19 kts | 239° |
| 2026-05-07 16:45 | 47.98356 | 10.22603 | 2088 ft | 0 kts | 270° |
| 2026-05-07 16:45 | 47.98381 | 10.22553 | 2088 ft | 13 kts | 320° |
| 2026-05-07 16:45 | 47.98458 | 10.22595 | 2085 ft | 15 kts | 59° |
| 2026-05-07 16:45 | 47.98541 | 10.22713 | 2083 ft | 18 kts | 7° |
| 2026-05-07 16:46 | 47.98667 | 10.22714 | 2078 ft | 10 kts | 4° |
| 2026-05-07 16:46 | 47.98702 | 10.22812 | 2074 ft | 14 kts | 81° |
| 2026-05-07 16:46 | 47.98705 | 10.22842 | 2076 ft | 0 kts | 81° |
| 2026-05-07 16:46 | 47.98706 | 10.22851 | 2076 ft | 4 kts | 81° |
| 2026-05-07 16:47 | 47.98726 | 10.22924 | 2077 ft | 9 kts | 44° |
| 2026-05-07 16:47 | 47.98764 | 10.23011 | 2079 ft | 11 kts | 69° |
| 2026-05-07 16:47 | 47.98791 | 10.23133 | 2080 ft | 14 kts | 70° |
| 2026-05-07 16:47 | 47.98825 | 10.23277 | 2081 ft | 12 kts | 70° |
| 2026-05-07 16:48 | 47.98837 | 10.23315 | 2081 ft | 3 kts | 51° |
| 2026-05-07 16:48 | 47.98869 | 10.23312 | 2080 ft | 7 kts | 342° |
| 2026-05-07 16:48 | 47.98888 | 10.23327 | 2080 ft | 0 kts | 46° |